Sierra Blanca Regional Airport
KSRR : now visible

Airfield :











YOU CAN JOIN US ON...

 
LOGIN :

Register | Disclaimer

   EN    FR    IT 

 









Legend :    VFR   Marginal VFR   IFR   Intensive IFR   Very Intensive IFR
Visi :
Ceiling :
>= 8 km
>= 3000ft
5 to 8 km
1000 to 3000 ft
1500m to 5 km
500 to 1000 ft
800 to 1500m
200 to 500 ft
< 800m
< 200 ft
Symbols :   Thunderstorms  Fog  Heavy snow  Heavy precipitations  Wind > 20 kt






- Airport Elevation : 6814 ft


KSRR - Sierra Blanca Regional

CURRENT METAR :
  • 171615Z AUTO 22003KT 10SM CLR 09/01 A3011 RMK AO2

EXPIRED METARs :
  • 171555Z AUTO 34004KT 10SM CLR 08/01 A3011 RMK AO2
  • 171535Z AUTO 22006KT 10SM FEW032 08/00 A3011 RMK AO2
  • 171515Z AUTO 28003KT 10SM SCT034 07/01 A3012 RMK AO2
  • 171455Z AUTO 02006KT 10SM FEW032 06/01 A3012 RMK AO2
  • 171435Z AUTO 24017G21KT 10SM FEW035 06/01 A3010 RMK AO2
  • 171415Z AUTO 25009G14KT 10SM FEW037 SCT043 05/00 A3010 RMK AO2
  • 171355Z AUTO 20007KT 10SM BKN037 BKN043 BKN050 05/01 A3011 RMK AO2
  • 171335Z AUTO 02006KT 10SM BKN042 OVC048 05/02 A3011 RMK AO2

TAF N/A



MET'MAP, your aeronautical weather chart ! - Copyright ORBIFLY December 2007 - Disclaimer

ORBIFLY MET'MAP TEAM :

Programming & Development : Alexandra Zaïnal
Concept & original design : Baudouin d'Aumeries
Assistance for programming : Marc-Olivier Méhu
Technical & hardware support : Manuel Goepfert

Contact : metmap@orbifly.com




SOURCES & CREDITS :

   NOAA       Earth
Advisory